Latest Weather Observations for Cape Wessel

IDD60801

Issued at 3:51 pm CST Tuesday 19 January 2021 (issued every 10 minutes, with the page automatically refreshed every 10 minutes)

About weather observations | Map of weather stations | Latest weather observations for NT | Other Formats
Station Details ID: 200786 Name: CAPE WESSEL Lat: -11.00 Lon: 136.76 Height: 18.0 m
Data from the previous 72 hours. | See also: Recent months at Cape Wessel
Date/Time
CST
Temp
°C
App
Temp
°C
Dew
Point
°C
Rel
Hum
%
Delta-T
°C
Wind Press
QNH
hPa
Press
MSL
hPa
Rain since
9am
mm
Dir  Spd
km/h
Gust
km/h
Spd
kts
Gust
kts
19/03:30pm 26.8 31.2 25.0 90 1.3 W 11 15 6 8 1007.9 1007.8 2.6
19/03:00pm 26.7 30.0 25.1 91 1.1 WNW 17 20 9 11 1008.1 1008.0 2.4
19/02:30pm 27.0 29.9 24.5 86 1.7 NW 17 20 9 11 1008.4 1008.3 2.4
19/02:00pm 27.1 31.7 25.9 93 0.8 NNW 13 15 7 8 1008.6 1008.5 2.4
19/01:30pm 27.5 30.4 24.4 83 2.2 N 17 20 9 11 1009.0 1008.9 0.4
19/01:00pm 27.3 30.2 25.1 88 1.5 NNW 19 22 10 12 1008.9 1008.8 0.4
19/12:30pm 26.9 28.6 25.3 91 1.1 NW 26 35 14 19 1009.1 1009.0 0.4
19/12:00pm 28.0 30.0 24.0 79 2.8 NNW 20 35 11 19 1009.4 1009.3 0.2
19/11:59am 28.3 30.5 23.9 77 3.0 NNW 19 35 10 19 1009.4 1009.3 0.2
19/11:30am 30.1 35.0 24.7 73 3.8 SW 7 9 4 5 1009.0 1008.9 0.2
19/11:00am 29.6 35.7 24.5 74 3.6 CALM 0 0 0 0 1009.5 1009.4 0.2
19/10:30am 28.8 34.2 25.2 81 2.5 SW 6 9 3 5 1009.5 1009.4 0.2
19/10:00am 27.4 32.8 24.5 84 2.0 S 4 9 2 5 1009.9 1009.8 0.0
19/09:30am 27.1 33.5 24.9 88 1.5 CALM 0 0 0 0 1009.7 1009.6 0.0
19/09:00am 26.2 31.5 25.0 93 0.8 SSW 6 7 3 4 1009.2 1009.1 19.0
19/08:30am 25.4 30.2 24.4 94 0.7 SSW 7 11 4 6 1009.3 1009.2 19.0
19/08:00am 25.0 28.4 24.1 95 0.6 SW 13 15 7 8 1009.2 1009.1 19.0
19/07:30am 24.9 26.2 24.0 95 0.6 NW 24 35 13 19 1009.2 1009.1 16.6
19/07:00am 25.6 25.3 24.2 92 1.0 NNW 33 44 18 24 1009.1 1009.0 6.2
19/06:51am 26.5 27.8 24.7 90 1.3 NW 26 37 14 20 1008.8 1008.7 4.2
19/06:30am 27.8 33.1 25.8 89 1.4 NNW 9 13 5 7 1008.4 1008.3 3.0
19/06:00am 27.6 32.3 25.6 89 1.4 N 11 13 6 7 1007.8 1007.7 3.0
19/05:30am 27.4 32.1 25.0 87 1.7 NNW 9 11 5 6 1007.0 1006.9 3.0
19/05:00am 27.7 31.7 25.1 86 1.8 NNW 13 17 7 9 1006.9 1006.8 3.0
19/04:30am 27.8 31.5 25.2 86 1.8 NNW 15 19 8 10 1006.7 1006.6 3.0
19/04:00am 27.8 32.2 25.6 88 1.6 NNW 13 17 7 9 1006.5 1006.4 3.0
19/03:30am 27.8 32.0 25.4 87 1.7 NNW 13 15 7 8 1006.5 1006.4 3.0
19/03:00am 27.8 32.0 25.4 87 1.7 NNW 13 15 7 8 1006.1 1006.0 3.0
19/02:30am 27.6 31.6 25.0 86 1.8 NW 13 15 7 8 1006.1 1006.0 3.0
19/02:00am 27.4 31.6 24.8 86 1.8 NW 11 13 6 7 1006.5 1006.4 3.0
19/01:30am 27.7 31.7 25.1 86 1.8 NNW 13 17 7 9 1006.7 1006.6 3.0
19/01:00am 28.0 32.4 25.6 87 1.7 NNW 13 17 7 9 1007.0 1006.9 3.0
19/12:30am 27.7 32.8 25.5 88 1.6 N 9 13 5 7 1007.1 1007.0 3.0
19/12:00am 27.9 33.1 25.7 88 1.6 N 9 11 5 6 1007.3 1007.2 3.0
 
Date/Time
CST
Temp
°C
App
Temp
°C
Dew
Point
°C
Rel
Hum
%
Delta-T
°C
Wind Press
QNH
hPa
Press
MSL
hPa
Rain since
9am
mm
Dir  Spd
km/h
Gust
km/h
Spd
kts
Gust
kts
18/11:30pm 27.9 32.7 25.7 88 1.6 N 11 13 6 7 1007.4 1007.3 3.0
18/11:00pm 28.1 32.9 25.7 87 1.7 N 11 13 6 7 1007.5 1007.4 3.0
18/10:30pm 28.3 32.6 25.5 85 2.0 N 13 17 7 9 1007.5 1007.4 3.0
18/10:00pm 28.5 32.7 25.9 86 1.8 N 15 20 8 11 1007.5 1007.4 3.0
18/09:30pm 28.7 32.2 25.5 83 2.3 NNW 17 20 9 11 1007.3 1007.2 3.0
18/09:00pm 28.5 31.9 25.3 83 2.3 NNW 17 20 9 11 1007.0 1006.9 3.0
18/08:30pm 28.5 32.6 25.7 85 2.0 NNW 15 20 8 11 1006.8 1006.7 3.0
18/08:00pm 28.5 32.0 25.5 84 2.1 NNW 17 22 9 12 1006.3 1006.2 3.0
18/07:30pm 28.6 31.1 25.4 83 2.3 N 22 28 12 15 1006.2 1006.1 3.0
18/07:00pm 28.8 31.7 25.4 82 2.4 N 20 26 11 14 1006.1 1006.0 3.0
18/06:30pm 28.9 31.2 25.1 80 2.7 N 22 30 12 16 1006.3 1006.2 2.8
18/06:00pm 29.1 31.7 25.5 81 2.5 N 22 30 12 16 1005.7 1005.6 2.8
18/05:30pm 29.2 31.3 25.4 80 2.7 N 24 32 13 17 1005.6 1005.5 2.8
18/05:00pm 29.3 31.4 25.3 79 2.8 N 24 32 13 17 1005.1 1005.0 2.8
18/04:30pm 29.4 32.1 25.6 80 2.7 N 22 28 12 15 1005.2 1005.1 2.8
18/04:00pm 29.3 32.3 26.1 83 2.3 N 22 28 12 15 1005.1 1005.0 2.8
18/03:30pm 28.9 32.7 25.9 84 2.1 NNW 17 24 9 13 1005.2 1005.1 2.8
18/03:00pm 31.2 34.4 25.8 73 3.9 NNW 20 28 11 15 1005.3 1005.2 2.6
18/02:30pm 31.4 34.7 26.0 73 3.9 N 20 24 11 13 1005.6 1005.5 2.6
18/02:00pm 31.5 34.6 25.4 70 4.3 N 19 24 10 13 1005.8 1005.7 2.6
18/01:30pm 31.3 35.3 25.6 71 4.1 NNE 15 19 8 10 1006.2 1006.1 2.6
18/01:00pm 30.9 35.3 27.3 81 2.6 NNE 19 22 10 12 1006.5 1006.4 2.4
18/12:30pm 29.5 34.2 26.7 85 2.0 NNE 15 20 8 11 1006.9 1006.8 2.4
18/12:00pm 27.7 30.9 25.9 90 1.3 N 20 28 11 15 1007.1 1007.0 2.4
18/11:49am 27.6 29.5 24.4 83 2.2 N 22 32 12 17 1007.1 1007.0 2.0
18/11:30am 29.4 34.8 26.0 82 2.4 NNE 9 13 5 7 1007.0 1006.9 1.8
18/11:00am 27.3 29.1 24.9 87 1.7 N 24 32 13 17 1007.3 1007.2 1.8
18/10:30am 30.8 33.2 25.2 72 4.0 NNW 22 32 12 17 1007.5 1007.4 0.0
18/10:00am 30.9 33.7 25.3 72 4.0 N 20 26 11 14 1007.4 1007.3 0.0
18/09:30am 31.5 34.9 26.1 73 3.9 N 20 28 11 15 1007.2 1007.1 0.0
18/09:00am 29.7 32.5 25.2 77 3.2 N 20 26 11 14 1007.0 1006.9 0.8
18/08:30am 30.3 33.5 25.8 77 3.2 N 20 26 11 14 1006.7 1006.6 0.8
18/08:00am 29.4 32.4 25.6 80 2.7 N 20 24 11 13 1006.6 1006.5 0.8
18/07:30am 29.1 32.2 25.7 82 2.4 N 20 28 11 15 1006.1 1006.0 0.8
18/07:00am 28.7 31.0 25.1 81 2.5 N 22 30 12 16 1005.8 1005.7 0.8
18/06:30am 28.2 30.1 25.0 83 2.2 N 24 30 13 16 1005.1 1005.0 0.8
18/06:00am 28.2 30.1 25.0 83 2.2 N 24 30 13 16 1004.9 1004.8 0.8
18/05:30am 28.0 30.0 24.6 82 2.4 N 22 26 12 14 1004.3 1004.2 0.8
18/05:00am 28.1 30.8 25.1 84 2.1 N 20 30 11 16 1004.0 1003.9 0.8
18/04:30am 28.0 30.2 24.8 83 2.2 N 22 28 12 15 1003.7 1003.6 0.8
18/04:00am 27.9 30.0 24.7 83 2.2 N 22 30 12 16 1003.6 1003.5 0.8
18/03:30am 27.9 30.1 24.9 84 2.1 N 22 30 12 16 1003.8 1003.7 0.8
18/03:00am 27.8 30.7 25.4 87 1.7 N 20 26 11 14 1003.9 1003.8 0.8
18/02:30am 27.7 30.5 25.3 87 1.7 N 20 26 11 14 1004.2 1004.1 0.8
18/02:00am 27.7 30.5 25.3 87 1.7 N 20 26 11 14 1004.4 1004.3 0.8
18/01:30am 27.5 30.3 25.3 88 1.5 N 20 24 11 13 1004.7 1004.6 0.8
18/01:00am 26.8 30.7 25.4 92 1.0 N 15 19 8 10 1005.0 1004.9 0.8
18/12:30am 26.2 29.9 24.6 91 1.1 NNE 13 19 7 10 1005.2 1005.1 0.8
18/12:00am 27.9 29.5 25.1 85 2.0 NNW 26 35 14 19 1005.5 1005.4 0.0
 
Date/Time
CST
Temp
°C
App
Temp
°C
Dew
Point
°C
Rel
Hum
%
Delta-T
°C
Wind Press
QNH
hPa
Press
MSL
hPa
Rain since
9am
mm
Dir  Spd
km/h
Gust
km/h
Spd
kts
Gust
kts
17/11:30pm 28.5 30.7 24.9 81 2.5 N 22 28 12 15 1006.0 1005.9 0.0
17/11:00pm 28.3 31.4 25.7 86 1.8 N 20 26 11 14 1006.0 1005.9 0.0
17/10:30pm 28.0 31.0 25.2 85 2.0 N 19 24 10 13 1006.0 1005.9 0.0
17/10:00pm 27.5 31.9 25.7 90 1.3 N 13 19 7 10 1005.9 1005.8 0.0
17/09:30pm 27.5 31.0 25.5 89 1.4 N 17 24 9 13 1005.6 1005.5 0.0
17/09:00pm 28.4 31.6 25.0 82 2.4 NNW 17 22 9 12 1005.5 1005.4 0.0
17/08:30pm 28.4 31.1 25.0 82 2.4 NNW 20 24 11 13 1005.1 1005.0 0.0
17/08:00pm 28.4 30.9 24.8 81 2.5 NNW 20 26 11 14 1004.7 1004.6 0.0
17/07:30pm 28.4 31.1 24.8 81 2.5 NNW 19 22 10 12 1004.1 1004.0 0.0
17/07:00pm 28.5 31.2 25.1 82 2.4 NNW 20 24 11 13 1003.6 1003.5 0.0
17/06:30pm 28.8 31.5 25.0 80 2.7 NNW 20 28 11 15 1003.5 1003.4 0.0
17/06:00pm 28.8 31.6 25.0 80 2.7 N 19 24 10 13 1003.2 1003.1 0.0
17/05:30pm 29.4 31.9 24.7 76 3.3 NNW 20 26 11 14 1003.0 1002.9 0.0
17/05:00pm 30.0 32.2 24.9 74 3.6 NNW 22 30 12 16 1002.7 1002.6 0.0
17/04:30pm 30.4 32.2 24.8 72 3.9 NNW 24 32 13 17 1002.6 1002.5 0.0
17/04:00pm 30.7 32.8 25.3 73 3.8 NNW 24 30 13 16 1002.7 1002.6 0.0
17/03:30pm 30.1 31.2 24.3 71 4.1 NNW 26 33 14 18 1002.8 1002.7 0.0
17/03:00pm 30.4 31.9 24.3 70 4.3 NNW 24 32 13 17 1003.1 1003.0 0.0
17/02:30pm 30.7 32.7 24.6 70 4.3 NNW 22 28 12 15 1003.1 1003.0 0.0
17/02:00pm 31.7 34.3 25.5 69 4.4 NNW 22 30 12 16 1003.3 1003.2 0.0
17/01:30pm 31.4 33.9 25.3 70 4.3 NNW 22 28 12 15 1003.8 1003.7 0.0
17/01:00pm 31.5 32.8 24.1 65 5.2 NNW 24 32 13 17 1004.1 1004.0 0.0
17/12:30pm 32.2 34.7 25.3 67 4.9 NNW 22 32 12 17 1004.3 1004.2 0.0
17/12:00pm 32.6 33.9 24.6 62 5.6 NNW 26 33 14 18 1004.6 1004.5 0.0
17/11:30am 31.8 33.4 25.2 68 4.7 NNW 26 33 14 18 1004.9 1004.8 0.0
17/11:00am 31.1 32.8 24.7 68 4.5 NNW 24 30 13 16 1004.9 1004.8 0.0
17/10:30am 29.9 31.7 24.3 72 3.9 NNW 22 32 12 17 1004.7 1004.6 0.0
17/10:00am 31.1 34.0 25.4 71 4.0 NNW 20 28 11 15 1004.5 1004.4 0.0
17/09:30am 29.9 32.7 25.2 76 3.3 NNW 20 26 11 14 1004.8 1004.7 0.0
17/09:00am 29.0 31.7 25.0 79 2.8 NNW 20 26 11 14 1004.8 1004.7 17.2
17/08:30am 28.3 30.8 24.7 81 2.5 NW 20 26 11 14 1004.7 1004.6 17.2
17/08:00am 27.9 30.0 24.7 83 2.2 NNW 22 28 12 15 1004.2 1004.1 17.2
17/07:30am 27.4 29.9 24.8 86 1.8 NNW 20 28 11 15 1003.8 1003.7 17.2
17/07:00am 26.9 29.6 24.7 88 1.5 NW 19 26 10 14 1003.5 1003.4 17.2
17/06:30am 26.6 29.6 25.2 92 1.0 WNW 19 22 10 12 1003.2 1003.1 17.2
17/06:00am 26.6 30.1 25.4 93 0.8 W 17 20 9 11 1002.8 1002.7 17.2
17/05:30am 26.6 28.6 25.2 92 1.0 W 24 30 13 16 1002.6 1002.5 17.2
17/05:00am 26.6 28.6 25.2 92 1.0 WNW 24 33 13 18 1002.3 1002.2 17.2
17/04:30am 26.4 28.1 24.6 90 1.3 NW 24 28 13 15 1002.1 1002.0 16.8
17/04:00am 26.2 27.7 24.4 90 1.2 NNW 24 28 13 15 1001.9 1001.8 16.8
17/03:30am 26.8 28.7 25.0 90 1.3 NNW 24 32 13 17 1002.0 1001.9 16.6
17/03:00am 26.6 28.6 24.6 89 1.4 WNW 22 26 12 14 1002.1 1002.0 16.4
17/02:30am 26.4 28.8 24.6 90 1.3 WNW 20 26 11 14 1001.7 1001.6 16.4
17/02:00am 26.4 30.1 25.2 93 0.8 W 15 19 8 10 1002.2 1002.1 16.4
17/01:30am 26.4 29.4 24.6 90 1.3 WSW 17 20 9 11 1002.7 1002.6 16.2
17/01:00am 26.8 30.0 25.0 90 1.3 WSW 17 20 9 11 1002.7 1002.6 16.2
17/12:30am 27.0 30.9 24.3 85 1.9 W 11 13 6 7 1003.0 1002.9 16.2
17/12:00am 27.0 30.4 24.1 84 2.0 W 13 15 7 8 1003.4 1003.3 16.2
 
Date/Time
CST
Temp
°C
App
Temp
°C
Dew
Point
°C
Rel
Hum
%
Delta-T
°C
Wind Press
QNH
hPa
Press
MSL
hPa
Rain since
9am
mm
Dir  Spd
km/h
Gust
km/h
Spd
kts
Gust
kts
16/11:30pm 26.7 30.6 24.2 86 1.7 WSW 11 13 6 7 1003.8 1003.7 16.2
16/11:00pm 26.5 30.5 23.8 85 1.9 SW 9 11 5 6 1003.9 1003.8 16.2
16/10:30pm 26.6 30.7 23.9 85 1.9 WSW 9 13 5 7 1004.2 1004.1 16.2
16/10:00pm 26.3 30.7 23.8 86 1.7 WSW 7 11 4 6 1004.0 1003.9 16.2
16/09:30pm 26.2 30.4 24.1 88 1.5 SW 9 9 5 5 1004.0 1003.9 16.2
16/09:00pm 26.2 30.0 24.1 88 1.5 SW 11 13 6 7 1003.8 1003.7 16.2
16/08:30pm 26.1 29.9 24.1 89 1.4 SW 11 13 6 7 1003.3 1003.2 16.2
16/08:00pm 26.2 29.7 24.2 89 1.4 S 13 17 7 9 1002.9 1002.8 16.2
16/07:30pm 26.2 29.7 24.2 89 1.4 S 13 19 7 10 1002.5 1002.4 16.2
16/07:00pm 26.2 29.3 24.2 89 1.4 S 15 17 8 9 1002.3 1002.2 16.2
16/06:30pm 26.3 29.0 24.2 88 1.5 S 17 22 9 12 1002.1 1002.0 16.2
16/06:00pm 26.3 27.1 23.8 86 1.7 S 26 32 14 17 1001.8 1001.7 16.2
16/05:30pm 26.3 26.8 24.0 87 1.6 S 28 35 15 19 1001.8 1001.7 16.2
16/05:00pm 26.3 26.7 23.8 86 1.7 S 28 37 15 20 1001.7 1001.6 16.2
16/04:30pm 26.6 25.6 24.3 87 1.6 S 37 48 20 26 1002.0 1001.9 16.2
16/04:00pm 26.6 25.8 24.6 89 1.4 S 37 46 20 25 1001.5 1001.4 16.2

Other formats

Comma delimited format used in spreadsheet applications
http://www.bom.gov.au/fwo/IDD60801/IDD60801.94147.axf

JavaScript Object Notation format (JSON) in row-major order
http://www.bom.gov.au/fwo/IDD60801/IDD60801.94147.json

Data quality

Most of these data are generated automatically and are frequently updated. Quality checks on data are not normally performed. It is possible for incorrect values to appear. Refer to information at About Latest Weather Observations and please check the disclaimer before using these data.